Flight Track Log - Related Links

Times and Time Zones

All times are in EST time to prevent confusion due to time zone crossing. See the FIN666 flight status page for this flight to view local times or setup timezone preferences in your user account.

Time Position Orientation Groundspeed Altitude Reporting Facility
EST Latitude Longitude Course Direction KTS MPH feet Rate Location/Type
Fri 07:25:00 AM 55.9251 13.2931 49° Northeast  Level Estimated
Fri 07:26:00 AM 56.0014 13.4539 50° Northeast  Level Estimated
Fri 07:27:00 AM 56.0774 13.6154 50° Northeast  Level Estimated
Fri 07:28:00 AM 56.1533 13.7776 50° Northeast  Level Estimated
Fri 07:29:00 AM 56.2278 13.9380 50° Northeast  Level Estimated
Fri 07:30:00 AM 56.3022 14.0990 50° Northeast  Level Estimated
Fri 07:31:00 AM 56.3763 14.2606 50° Northeast  Level Estimated
Fri 07:32:00 AM 56.4502 14.4229 50° Northeast  Level Estimated
Fri 07:33:00 AM 56.5239 14.5859 51° Northeast  Level Estimated
Fri 07:34:00 AM 56.5974 14.7494 51° Northeast  Level Estimated
Fri 07:35:00 AM 56.6707 14.9136 51° Northeast  Level Estimated
Fri 07:36:00 AM 56.7438 15.0784 51° Northeast  Level Estimated
Fri 07:37:00 AM 56.8166 15.2439 51° Northeast  Level Estimated
Fri 07:38:00 AM 56.8892 15.4100 51° Northeast  Level Estimated
Fri 07:39:00 AM 56.9616 15.5768 51° Northeast  Level Estimated
Fri 07:40:00 AM 57.0338 15.7442 52° Northeast  Level Estimated
Fri 07:41:00 AM 57.1057 15.9122 52° Northeast  Level Estimated
Fri 07:42:00 AM 57.1775 16.0809 52° Northeast  Level Estimated
Fri 07:43:00 AM 57.2490 16.2503 52° Northeast  Level Estimated
Fri 07:44:00 AM 57.3202 16.4203 52° Northeast  Level Estimated
Fri 07:45:00 AM 57.3913 16.5910 52° Northeast  Level Estimated
Fri 07:46:00 AM 57.4621 16.7624 52° Northeast  Level Estimated
Fri 07:47:00 AM 57.5327 16.9344 53° Northeast  Level Estimated
Fri 07:48:00 AM 57.6030 17.1070 53° Northeast  Level Estimated
Fri 07:49:00 AM 57.6731 17.2804 53° Northeast  Level Estimated
Fri 07:50:00 AM 57.7430 17.4544 53° Northeast  Level Estimated
Fri 07:51:00 AM 57.8126 17.6291 53° Northeast  Level Estimated
Fri 07:52:00 AM 57.8820 17.8044 53° Northeast  Level Estimated
Fri 07:53:00 AM 57.9511 17.9805 53° Northeast  Level Estimated
Fri 07:54:00 AM 58.0200 18.1572 54° Northeast  Level Estimated
Fri 07:55:00 AM 58.0887 18.3346 54° Northeast  Level Estimated
Fri 07:56:00 AM 58.1571 18.5126 54° Northeast  Level Estimated
Fri 07:57:00 AM 58.2253 18.6914 54° Northeast  Level Estimated
Fri 07:58:00 AM 58.2932 18.8709 54° Northeast  Level Estimated
Fri 07:59:00 AM 58.3608 19.0510 54° Northeast  Level Estimated
Fri 08:00:00 AM 58.4282 19.2318 55° Northeast  Level Estimated
Fri 08:01:00 AM 58.4954 19.4133 55° Northeast  Level Estimated
Fri 08:02:00 AM 58.5622 19.5956 55° Northeast  Level Estimated
Fri 08:03:00 AM 58.6289 19.7785 55° Northeast  Level Estimated
Fri 08:04:00 AM 58.6953 19.9621 55° Northeast  Level Estimated
Fri 08:05:00 AM 58.7614 20.1464 55° Northeast  Level Estimated
Fri 08:06:00 AM 58.8272 20.3314 55° Northeast  Level Estimated
Fri 08:07:00 AM 58.8928 20.5171 56° Northeast  Level Estimated
Fri 08:08:00 AM 58.9581 20.7035 56° Northeast  Level Estimated
Fri 08:09:00 AM 59.0231 20.8906 56° Northeast  Level Estimated
Fri 08:10:00 AM 59.0879 21.0785 56° Northeast  Level Estimated
Fri 08:11:00 AM 59.1553 21.2756 56° Northeast  Level Estimated
Fri 08:12:00 AM 59.2224 21.4735 56° Northeast  Level Estimated
Fri 08:13:00 AM 59.2893 21.6722 57° Northeast  Level Estimated
Fri 08:14:00 AM 59.3558 21.8717 57° Northeast  Level Estimated
Fri 08:15:00 AM 59.4220 22.0719 57° Northeast  Level Estimated
Fri 08:16:00 AM 59.4879 22.2729 57° Northeast  Level Estimated
Fri 08:17:00 AM 59.5535 22.4747 57° Northeast  Level Estimated
Fri 08:18:00 AM 59.6188 22.6773 57° Northeast  Level Estimated
Fri 08:19:00 AM 59.6837 22.8807 58° Northeast  Level Estimated
Fri 08:20:00 AM 59.7484 23.0849 58° Northeast  Level Estimated
Fri 08:21:00 AM 59.8127 23.2898 58° Northeast  Level Estimated
Fri 08:22:00 AM 59.8767 23.4956 58° Northeast  Level Estimated
Fri 08:23:00 AM 59.9404 23.7021 58° Northeast  Level Estimated
Fri 08:24:00 AM 60.0038 23.9095 58° Northeast  Level Estimated
Fri 08:25:00 AM 60.0668 24.1176 59° Northeast  Level Estimated
Fri 08:26:00 AM 60.1295 24.3265 59° Northeast  Level Estimated
Fri 08:27:00 AM 60.1919 24.5362 59° Northeast  Level Estimated
Fri 08:28:00 AM 60.2540 24.7468 59° Northeast  Level Estimated
Fri 08:29:00 AM 60.3172 24.9633 59° Northeast  Level Estimated
Fri 08:30:00 AM 60.3172 24.9633 37° Northeast  Level Estimated
Fri 08:31:00 AM 60.3172 24.9633 37° Northeast  Level Estimated
Fri 08:32:00 AM 60.3172 24.9633 37° Northeast  Level Estimated
Fri 08:33:00 AM 60.3172 24.9633 37° Northeast  Level Estimated
Fri 08:34:00 AM 60.3172 24.9633 37° Northeast  Level Estimated
Fri 08:35:00 AM 60.3172 24.9633 37° Northeast  Level Estimated
Fri 08:36:00 AM 60.3172 24.9633 37° Northeast  Level Estimated
Fri 08:37:00 AM 60.3172 24.9633 37° Northeast  Level Estimated
Fri 08:38:00 AM 60.3172 24.9633 37° Northeast  Level Estimated
Fri 08:39:00 AM 60.3172 24.9633 37° Northeast  Level Estimated
Fri 08:40:00 AM 60.3172 24.9633 37° Northeast  Level Estimated

Login

Don't have an account? Register now (free) for customized features, flight alerts, and more!